Time;durP1;ratioP1;P1;durP2;ratioP2;P2;SDS_P1;SDS_P2;PMS_P1;PMS_P2;Temp;Humidity;BMP_temperature;BMP_pressure;BME280_temperature;BME280_humidity;BME280_pressure;Samples;Min_cycle;Max_cycle;Signal;HPM_P1;HPM_P2
2022/04/16 00:02:07;;;;;;;5.45;4.32;;;6.70;99.90;;;;;;4961195;28;20442;-81
2022/04/16 00:04:33;;;;;;;6.07;4.40;;;6.60;99.90;;;;;;4983805;28;20025;-81
2022/04/16 00:06:59;;;;;;;5.65;3.88;;;6.70;99.90;;;;;;4994461;28;20133;-81
2022/04/16 00:09:25;;;;;;;8.02;5.13;;;6.60;99.90;;;;;;4967758;28;20022;-81
2022/04/16 00:11:51;;;;;;;6.78;4.75;;;6.60;99.90;;;;;;4978028;28;20045;-80
2022/04/16 00:14:17;;;;;;;7.43;5.38;;;6.50;99.90;;;;;;4990038;28;20030;-81
2022/04/16 00:16:44;;;;;;;7.07;4.60;;;6.50;99.90;;;;;;4961009;28;20556;-80
2022/04/16 00:19:11;;;;;;;6.93;4.30;;;6.50;99.90;;;;;;4998430;28;20048;-80
2022/04/16 00:21:38;;;;;;;7.97;4.88;;;6.40;99.90;;;;;;5001259;28;20044;-81
2022/04/16 00:24:04;;;;;;;4.65;3.05;;;6.40;99.90;;;;;;4984692;28;20030;-80
2022/04/16 00:26:29;;;;;;;5.00;3.85;;;6.30;99.90;;;;;;4998222;28;20038;-81
2022/04/16 00:28:58;;;;;;;7.00;4.57;;;6.30;99.90;;;;;;4982026;28;20033;-80
2022/04/16 00:31:25;;;;;;;6.35;4.65;;;6.20;99.90;;;;;;4975902;28;20036;-81
2022/04/16 00:33:52;;;;;;;5.72;4.95;;;6.10;99.90;;;;;;4978039;28;20042;-81
2022/04/16 00:36:18;;;;;;;7.65;4.63;;;6.20;99.90;;;;;;4984072;28;20470;-81
2022/04/16 00:38:43;;;;;;;5.60;4.90;;;6.10;99.90;;;;;;4976927;28;20071;-81
2022/04/16 00:41:10;;;;;;;6.88;5.07;;;6.10;99.90;;;;;;4982485;28;20253;-81
2022/04/16 00:43:36;;;;;;;5.72;5.13;;;6.00;99.90;;;;;;4982635;28;20068;-81
2022/04/16 00:46:01;;;;;;;5.88;4.50;;;6.00;99.90;;;;;;4982795;28;20471;-80
2022/04/16 00:48:27;;;;;;;6.07;4.70;;;6.00;99.90;;;;;;4967557;28;20034;-81
2022/04/16 00:50:56;;;;;;;5.60;4.43;;;5.90;99.90;;;;;;5000974;28;20030;-80
2022/04/16 00:53:25;;;;;;;5.97;4.73;;;5.80;99.90;;;;;;4976311;28;20088;-81
2022/04/16 00:55:51;;;;;;;4.68;4.20;;;5.80;99.90;;;;;;4965139;28;20320;-81
2022/04/16 00:58:17;;;;;;;6.05;4.65;;;5.70;99.90;;;;;;5000575;28;20030;-81
2022/04/16 01:00:43;;;;;;;7.78;6.03;;;5.80;99.90;;;;;;4983172;28;20048;-81
2022/04/16 01:03:09;;;;;;;8.05;5.50;;;5.70;99.90;;;;;;4983275;28;20041;-81
2022/04/16 01:05:36;;;;;;;7.22;5.63;;;5.80;99.90;;;;;;4999106;28;20032;-81
2022/04/16 01:08:04;;;;;;;7.80;6.40;;;5.80;99.90;;;;;;4966145;28;20434;-81
2022/04/16 01:10:31;;;;;;;6.72;5.95;;;5.80;99.90;;;;;;4998111;28;20133;-81
2022/04/16 01:12:59;;;;;;;7.82;5.28;;;5.70;99.90;;;;;;4982784;28;20033;-81
2022/04/16 01:15:25;;;;;;;7.13;5.38;;;5.70;99.90;;;;;;4982725;28;20475;-80
2022/04/16 01:17:51;;;;;;;9.10;7.00;;;5.80;99.90;;;;;;4966206;28;20704;-82
2022/04/16 01:20:18;;;;;;;9.77;6.25;;;5.90;99.90;;;;;;4977037;28;20045;-81
2022/04/16 01:22:45;;;;;;;5.40;4.05;;;5.80;99.90;;;;;;4980841;28;20081;-81
2022/04/16 01:25:11;;;;;;;7.95;5.88;;;5.80;99.90;;;;;;4999979;28;20509;-81
2022/04/16 01:27:39;;;;;;;9.73;6.15;;;5.80;99.90;;;;;;4982630;28;20049;-81
2022/04/16 01:30:05;;;;;;;8.50;6.53;;;5.80;99.90;;;;;;4958983;28;20523;-81
2022/04/16 01:32:34;;;;;;;8.70;6.35;;;5.70;99.90;;;;;;5001235;28;20030;-81
2022/04/16 01:35:00;;;;;;;6.22;4.45;;;5.80;99.90;;;;;;4976350;28;20607;-81
2022/04/16 01:37:31;;;;;;;8.20;6.47;;;5.80;99.90;;;;;;4966623;28;20054;-81
2022/04/16 01:39:58;;;;;;;8.55;5.57;;;5.80;99.90;;;;;;4959576;28;20737;-81
2022/04/16 01:42:24;;;;;;;7.70;5.85;;;5.60;99.90;;;;;;4960198;28;20038;-80
2022/04/16 01:44:51;;;;;;;8.55;6.35;;;5.60;99.90;;;;;;4989561;28;20462;-81
2022/04/16 01:47:17;;;;;;;7.85;5.90;;;5.60;99.90;;;;;;4984455;28;20036;-81
2022/04/16 01:49:43;;;;;;;7.85;6.00;;;5.50;99.90;;;;;;4971395;28;20045;-80
2022/04/16 01:52:09;;;;;;;6.78;5.43;;;5.40;99.90;;;;;;4985463;28;20108;-82
2022/04/16 01:54:36;;;;;;;6.90;5.35;;;5.40;99.90;;;;;;4979675;28;20026;-81
2022/04/16 01:57:02;;;;;;;9.75;6.18;;;5.40;99.90;;;;;;4985665;28;20399;-81
2022/04/16 01:59:29;;;;;;;7.68;5.93;;;5.40;99.90;;;;;;4969742;28;20310;-81
2022/04/16 02:01:56;;;;;;;8.20;5.93;;;5.30;99.90;;;;;;4980062;28;20026;-81
2022/04/16 02:04:22;;;;;;;9.15;6.28;;;5.30;99.90;;;;;;4979520;28;20033;-81
2022/04/16 02:06:50;;;;;;;10.57;6.60;;;5.20;99.90;;;;;;4969645;28;21743;-80
2022/04/16 02:09:17;;;;;;;10.05;7.40;;;5.20;99.90;;;;;;4964173;28;20021;-80
2022/04/16 02:11:43;;;;;;;8.68;6.03;;;5.10;99.90;;;;;;4980637;28;20437;-80
2022/04/16 02:14:08;;;;;;;8.00;6.47;;;5.10;99.90;;;;;;4984852;28;20623;-80
2022/04/16 02:16:34;;;;;;;10.07;6.90;;;5.10;99.90;;;;;;4963008;28;20034;-80
2022/04/16 02:19:00;;;;;;;8.48;6.22;;;5.10;99.90;;;;;;5000468;28;20482;-82
2022/04/16 02:21:26;;;;;;;8.57;6.38;;;5.00;99.90;;;;;;4986194;28;20116;-80
2022/04/16 02:23:52;;;;;;;8.85;7.07;;;5.00;99.90;;;;;;4979439;28;20080;-80
2022/04/16 02:26:21;;;;;;;8.38;6.43;;;5.00;99.90;;;;;;4986080;28;20031;-80
2022/04/16 02:28:50;;;;;;;8.33;6.10;;;5.00;99.90;;;;;;4983563;28;20497;-81
2022/04/16 02:31:15;;;;;;;7.00;5.60;;;4.90;99.90;;;;;;4969613;28;21924;-80
2022/04/16 02:33:41;;;;;;;11.70;7.18;;;4.80;99.90;;;;;;4985511;28;20035;-80
2022/04/16 02:36:07;;;;;;;9.73;6.80;;;4.80;99.90;;;;;;4985980;28;20026;-80
2022/04/16 02:38:36;;;;;;;10.23;6.72;;;4.70;99.90;;;;;;5000395;28;20043;-81
2022/04/16 02:41:02;;;;;;;9.23;6.33;;;4.70;99.90;;;;;;4979257;28;20052;-80
2022/04/16 02:43:28;;;;;;;10.48;6.30;;;4.70;99.90;;;;;;4985303;28;20034;-80
2022/04/16 02:48:37;;;;;;;9.77;6.43;;;4.80;99.90;;;;;;5001112;28;20553;-80
2022/04/16 02:51:03;;;;;;;8.20;6.38;;;4.70;99.90;;;;;;5001972;28;20085;-80
2022/04/16 02:53:31;;;;;;;8.13;5.95;;;4.70;99.90;;;;;;4985764;28;20037;-79
2022/04/16 02:56:05;;;;;;;11.10;6.93;;;4.80;99.90;;;;;;4960979;28;20122;-80
2022/04/16 02:58:30;;;;;;;9.55;7.22;;;4.70;99.90;;;;;;4982983;28;20128;-80
2022/04/16 03:00:56;;;;;;;8.25;5.50;;;4.70;99.90;;;;;;5000020;28;20042;-79
2022/04/16 03:03:22;;;;;;;11.80;7.18;;;4.70;99.90;;;;;;5000487;28;20083;-80
2022/04/16 03:05:48;;;;;;;10.73;7.10;;;4.80;99.90;;;;;;4969454;28;20017;-80
2022/04/16 03:08:15;;;;;;;10.43;7.22;;;4.70;99.90;;;;;;4978065;28;20858;-80
2022/04/16 03:10:41;;;;;;;10.00;6.90;;;4.60;99.90;;;;;;4999407;28;20474;-80
2022/04/16 03:13:07;;;;;;;9.75;7.47;;;4.70;99.90;;;;;;4984424;28;20121;-80
2022/04/16 03:18:18;;;;;;;9.98;6.28;;;4.50;99.90;;;;;;4993791;28;20486;-80
2022/04/16 03:20:44;;;;;;;10.23;7.60;;;4.50;99.90;;;;;;4999795;28;20038;-80
2022/04/16 03:23:10;;;;;;;9.23;6.07;;;4.50;99.90;;;;;;4978333;28;20026;-80
2022/04/16 03:25:39;;;;;;;11.90;7.40;;;4.50;99.90;;;;;;5017492;23;20057;-80
2022/04/16 03:28:05;;;;;;;8.90;5.95;;;4.50;99.90;;;;;;4980926;28;20064;-80
2022/04/16 03:30:30;;;;;;;10.20;6.68;;;4.40;99.90;;;;;;4982070;28;20128;-80
2022/04/16 03:32:56;;;;;;;10.65;6.45;;;4.40;99.90;;;;;;5003567;28;20034;-80
2022/04/16 03:35:23;;;;;;;8.30;5.85;;;4.40;99.90;;;;;;5003830;28;20029;-81
2022/04/16 03:37:48;;;;;;;9.32;6.20;;;4.40;99.90;;;;;;5021315;28;20026;-80
2022/04/16 03:40:14;;;;;;;11.05;6.53;;;4.40;99.90;;;;;;5021646;28;20140;-81
2022/04/16 03:42:48;;;;;;;9.45;7.20;;;4.40;99.90;;;;;;4999411;28;20489;-80
2022/04/16 03:45:21;;;;;;;8.70;6.05;;;4.40;99.90;;;;;;5018881;28;20473;-80
2022/04/16 03:47:50;;;;;;;8.60;5.68;;;4.30;99.90;;;;;;4985493;28;20029;-81
2022/04/16 03:50:17;;;;;;;7.90;5.75;;;4.40;99.90;;;;;;5010274;28;20066;-81
2022/04/16 03:52:45;;;;;;;8.82;6.65;;;4.30;99.90;;;;;;5004021;28;20049;-81
2022/04/16 04:00:47;;;;;;;8.82;5.57;;;4.50;99.90;;;;;;5019011;28;20469;-82
2022/04/16 04:03:13;;;;;;;10.07;7.07;;;4.50;99.90;;;;;;4987568;28;20123;-81
2022/04/16 04:05:39;;;;;;;8.68;6.55;;;4.40;99.90;;;;;;5018823;28;20450;-81
2022/04/16 04:08:06;;;;;;;11.20;6.95;;;4.30;99.90;;;;;;5017736;28;20076;-79
2022/04/16 04:10:32;;;;;;;8.48;6.30;;;4.30;99.90;;;;;;5002677;28;20123;-81
2022/04/16 04:12:57;;;;;;;10.73;6.82;;;4.20;99.90;;;;;;5005715;28;20462;-81
2022/04/16 04:15:23;;;;;;;8.80;7.03;;;4.20;99.90;;;;;;5001215;28;20092;-81
2022/04/16 04:17:50;;;;;;;10.90;6.60;;;4.20;99.90;;;;;;5005427;28;20360;-81
2022/04/16 04:20:15;;;;;;;9.45;6.35;;;4.30;99.90;;;;;;4982847;28;20045;-81
2022/04/16 04:22:41;;;;;;;9.13;6.68;;;4.20;99.90;;;;;;4987007;28;20404;-81
2022/04/16 04:25:07;;;;;;;6.72;5.10;;;4.20;99.90;;;;;;5002304;28;20489;-81
2022/04/16 04:27:32;;;;;;;10.45;7.28;;;4.20;99.90;;;;;;5002753;28;20036;-81
2022/04/16 04:30:01;;;;;;;10.35;7.35;;;4.30;99.90;;;;;;5009648;28;20136;-81
2022/04/16 04:32:27;;;;;;;9.05;5.95;;;4.30;99.90;;;;;;5003073;28;20127;-81
2022/04/16 04:34:53;;;;;;;11.07;6.63;;;4.30;99.90;;;;;;4986418;28;20231;-81
2022/04/16 04:37:18;;;;;;;8.32;5.80;;;4.20;99.90;;;;;;5003039;28;20029;-81
2022/04/16 04:39:44;;;;;;;9.43;6.68;;;4.20;99.90;;;;;;5003271;28;20045;-81
2022/04/16 04:42:09;;;;;;;10.77;6.88;;;4.20;99.90;;;;;;4983239;28;20445;-81
2022/04/16 04:44:35;;;;;;;10.52;7.40;;;4.20;99.90;;;;;;5002623;28;20040;-81
2022/04/16 04:47:01;;;;;;;9.48;6.53;;;4.30;99.90;;;;;;5000675;28;20428;-81
2022/04/16 04:49:26;;;;;;;10.20;6.43;;;4.40;99.90;;;;;;5002381;28;20037;-81
2022/04/16 04:51:52;;;;;;;11.07;6.63;;;4.40;99.90;;;;;;5006800;28;20705;-81
2022/04/16 04:54:18;;;;;;;10.23;7.18;;;4.40;99.90;;;;;;5002345;28;20033;-81
2022/04/16 04:56:45;;;;;;;12.85;7.75;;;4.40;99.90;;;;;;4987760;28;20053;-81
2022/04/16 04:59:10;;;;;;;8.82;6.07;;;4.50;99.90;;;;;;5020397;28;20389;-81
2022/04/16 05:01:36;;;;;;;10.02;7.57;;;4.50;99.90;;;;;;5009581;28;20038;-82
2022/04/16 05:04:02;;;;;;;11.40;6.20;;;4.50;99.90;;;;;;5019593;28;20029;-80
2022/04/16 05:06:28;;;;;;;10.35;8.10;;;4.40;99.90;;;;;;5009432;28;20037;-81
2022/04/16 05:08:53;;;;;;;10.65;7.45;;;4.60;99.90;;;;;;5000799;28;20029;-80
2022/04/16 05:11:19;;;;;;;12.15;7.57;;;4.60;99.90;;;;;;5019981;28;20044;-81
2022/04/16 05:13:45;;;;;;;10.98;8.05;;;4.60;99.90;;;;;;4998232;28;20060;-80
2022/04/16 05:16:12;;;;;;;13.25;8.40;;;4.60;99.90;;;;;;5019349;28;20040;-80
2022/04/16 05:18:38;;;;;;;10.60;7.38;;;4.60;99.90;;;;;;4982339;28;20033;-81
2022/04/16 05:21:04;;;;;;;11.52;8.23;;;4.70;99.90;;;;;;5017778;28;20091;-80
2022/04/16 05:23:29;;;;;;;9.70;6.65;;;4.70;99.90;;;;;;4985656;28;20278;-80
2022/04/16 05:25:55;;;;;;;10.27;7.10;;;4.70;99.90;;;;;;5002018;28;20057;-81
2022/04/16 05:28:20;;;;;;;10.20;7.32;;;4.80;99.90;;;;;;4978855;28;20124;-80
2022/04/16 05:30:48;;;;;;;12.18;7.32;;;4.80;99.90;;;;;;4985058;28;20044;-81
2022/04/16 05:36:05;;;;;;;10.38;8.10;;;4.90;99.90;;;;;;5017826;28;20064;-81
2022/04/16 05:38:31;;;;;;;11.55;8.23;;;5.00;99.90;;;;;;5001875;28;20053;-81
2022/04/16 05:40:57;;;;;;;11.00;8.40;;;5.00;99.90;;;;;;5002430;28;20113;-80
2022/04/16 05:43:23;;;;;;;11.30;7.90;;;5.00;99.90;;;;;;5002429;28;20444;-81
2022/04/16 05:45:48;;;;;;;13.05;8.13;;;5.10;99.90;;;;;;5001342;28;20038;-80
2022/04/16 05:48:14;;;;;;;12.10;7.80;;;5.10;99.90;;;;;;5001709;28;20041;-81
2022/04/16 05:50:40;;;;;;;12.80;9.13;;;5.20;99.90;;;;;;5001141;28;20148;-80
2022/04/16 05:53:10;;;;;;;11.93;9.27;;;5.20;99.90;;;;;;5018576;28;20021;-81
2022/04/16 05:55:40;;;;;;;;;;;5.30;99.90;;;;;;5019717;28;20041;-80
2022/04/16 05:58:06;;;;;;;12.73;8.38;;;5.40;99.90;;;;;;5016771;28;20168;-81
2022/04/16 06:00:33;;;;;;;11.10;7.95;;;5.40;99.90;;;;;;5000901;28;20041;-81
2022/04/16 06:02:59;;;;;;;14.27;9.32;;;5.50;99.90;;;;;;5005497;28;20634;-81
2022/04/16 06:05:25;;;;;;;11.77;8.60;;;5.60;99.90;;;;;;5018283;28;20037;-81
2022/04/16 06:07:50;;;;;;;13.45;9.32;;;5.60;99.90;;;;;;5001584;28;20041;-81
2022/04/16 06:10:16;;;;;;;11.07;8.95;;;5.70;99.90;;;;;;5001487;28;20037;-81
2022/04/16 06:12:41;;;;;;;11.98;8.27;;;5.70;99.90;;;;;;5009493;28;20312;-80
2022/04/16 06:15:08;;;;;;;12.98;8.15;;;5.80;99.90;;;;;;5007232;28;20549;-80
2022/04/16 06:17:34;;;;;;;12.80;9.55;;;5.90;99.90;;;;;;4984609;28;20397;-80
2022/04/16 06:20:00;;;;;;;13.52;9.70;;;6.00;99.90;;;;;;4979041;28;20142;-79
2022/04/16 06:22:26;;;;;;;14.02;9.90;;;6.10;99.90;;;;;;5000358;28;20424;-80
2022/04/16 06:24:51;;;;;;;16.00;10.88;;;6.20;99.90;;;;;;4983381;28;20058;-80
2022/04/16 06:27:17;;;;;;;15.07;10.30;;;6.30;99.90;;;;;;4994578;28;20514;-80
2022/04/16 06:29:43;;;;;;;11.70;8.88;;;6.40;99.90;;;;;;5000457;28;20112;-80
2022/04/16 06:32:08;;;;;;;15.73;9.75;;;6.50;99.90;;;;;;5008520;28;20366;-80
2022/04/16 06:34:34;;;;;;;13.18;9.63;;;6.60;99.90;;;;;;4989256;28;20037;-80
2022/04/16 06:36:59;;;;;;;11.52;8.27;;;6.70;99.90;;;;;;5010174;28;20025;-80
2022/04/16 06:39:26;;;;;;;15.43;10.90;;;6.90;99.90;;;;;;5010614;28;20052;-81
2022/04/16 06:41:51;;;;;;;12.88;9.63;;;7.00;99.90;;;;;;5020073;28;21789;-80
2022/04/16 06:44:20;;;;;;;13.07;9.55;;;7.20;99.90;;;;;;5003972;28;20021;-80
2022/04/16 06:46:46;;;;;;;13.32;9.30;;;7.30;99.90;;;;;;5005558;28;20036;-81
2022/04/16 06:49:12;;;;;;;11.50;8.68;;;7.50;99.90;;;;;;5005821;28;20159;-81
2022/04/16 06:51:37;;;;;;;11.90;8.68;;;7.60;99.90;;;;;;4987463;28;20893;-81
2022/04/16 06:54:03;;;;;;;12.23;8.95;;;7.90;99.90;;;;;;4984652;28;20426;-80
2022/04/16 06:56:28;;;;;;;12.25;8.93;;;8.10;99.90;;;;;;5018876;28;20469;-79
2022/04/16 06:58:54;;;;;;;11.68;9.27;;;8.30;99.90;;;;;;4987025;28;21908;-80
2022/04/16 07:01:20;;;;;;;13.60;9.68;;;8.40;99.90;;;;;;4986425;28;20128;-80
2022/04/16 07:03:45;;;;;;;13.75;10.23;;;8.60;99.90;;;;;;5001353;28;20450;-80
2022/04/16 07:06:11;;;;;;;13.45;10.00;;;8.70;99.90;;;;;;5021483;28;20112;-80
2022/04/16 07:08:36;;;;;;;14.15;10.45;;;8.90;99.90;;;;;;4987630;28;20052;-81
2022/04/16 07:11:02;;;;;;;14.82;11.52;;;9.00;99.90;;;;;;5002713;28;20026;-81
2022/04/16 07:13:28;;;;;;;13.10;9.98;;;9.20;99.90;;;;;;5002894;28;20033;-81
2022/04/16 07:15:53;;;;;;;11.55;8.90;;;9.40;99.90;;;;;;5003084;28;20045;-81
2022/04/16 07:18:20;;;;;;;14.85;10.90;;;9.60;99.90;;;;;;5002207;28;20033;-79
2022/04/16 07:20:47;;;;;;;15.80;12.73;;;9.60;99.90;;;;;;5003102;28;20140;-80
2022/04/16 07:23:13;;;;;;;14.35;10.68;;;9.70;99.90;;;;;;5001618;28;20038;-81
2022/04/16 07:25:38;;;;;;;13.65;10.88;;;9.80;99.90;;;;;;5004933;28;20106;-81
2022/04/16 07:28:04;;;;;;;13.07;10.07;;;10.00;99.90;;;;;;5003841;28;20032;-80
2022/04/16 07:30:30;;;;;;;13.43;9.60;;;10.10;99.90;;;;;;5019271;28;20037;-81
2022/04/16 07:32:55;;;;;;;12.43;9.48;;;10.20;99.90;;;;;;5018561;28;20057;-81
2022/04/16 07:35:21;;;;;;;13.98;10.60;;;10.30;99.90;;;;;;5001663;28;20429;-78
2022/04/16 07:37:46;;;;;;;13.32;9.95;;;10.30;99.90;;;;;;4998809;28;20040;-80
2022/04/16 07:40:13;;;;;;;13.77;10.77;;;10.30;99.90;;;;;;5016696;28;20584;-79
2022/04/16 07:42:38;;;;;;;12.02;8.93;;;10.50;99.90;;;;;;5005491;28;20048;-80
2022/04/16 07:45:05;;;;;;;12.48;8.50;;;10.70;99.90;;;;;;5016310;28;20033;-80
2022/04/16 07:47:31;;;;;;;13.55;8.95;;;11.00;99.90;;;;;;4997988;28;20057;-81
2022/04/16 07:49:56;;;;;;;12.85;9.80;;;10.90;99.90;;;;;;4999718;28;20120;-80
2022/04/16 07:52:24;;;;;;;11.18;9.27;;;10.90;99.90;;;;;;5016382;28;20403;-81
2022/04/16 07:54:51;;;;;;;12.18;9.27;;;10.90;99.90;;;;;;4984484;28;20120;-82
2022/04/16 07:57:17;;;;;;;13.75;10.45;;;11.10;99.90;;;;;;4998048;28;20512;-81
2022/04/16 07:59:42;;;;;;;16.00;12.30;;;11.20;99.90;;;;;;4994319;28;20037;-81
2022/04/16 08:02:08;;;;;;;13.15;8.68;;;11.30;99.90;;;;;;4993758;28;20167;-82
2022/04/16 08:04:34;;;;;;;12.32;8.85;;;11.50;99.90;;;;;;5005997;28;20147;-82
2022/04/16 08:06:59;;;;;;;11.20;8.50;;;11.80;99.90;;;;;;5014432;28;20138;-82
2022/04/16 08:09:25;;;;;;;11.23;7.82;;;11.90;99.90;;;;;;4994941;28;20089;-82
2022/04/16 08:11:50;;;;;;;11.15;8.45;;;11.70;99.90;;;;;;5013802;28;20048;-82
2022/04/16 08:14:16;;;;;;;9.75;7.28;;;11.90;99.90;;;;;;4998098;28;20039;-81
2022/04/16 08:16:42;;;;;;;10.43;6.63;;;11.90;99.90;;;;;;4982320;28;20493;-80
2022/04/16 08:19:07;;;;;;;11.52;7.53;;;12.10;99.90;;;;;;4997778;28;20056;-81
2022/04/16 08:21:34;;;;;;;7.90;6.90;;;12.10;99.90;;;;;;5016583;28;20033;-80
2022/04/16 08:24:04;;;;;;;9.43;6.82;;;12.20;99.90;;;;;;5000131;28;20037;-80
2022/04/16 08:26:30;;;;;;;;;;;12.50;99.90;;;;;;4991938;28;20182;-80
2022/04/16 08:28:56;;;;;;;8.63;5.45;;;12.30;99.90;;;;;;4993644;28;20397;-81
2022/04/16 08:31:21;;;;;;;7.72;5.50;;;12.60;99.90;;;;;;4999875;28;20096;-81
2022/04/16 08:33:47;;;;;;;7.68;5.55;;;12.70;99.90;;;;;;5016985;28;20254;-80
2022/04/16 08:36:12;;;;;;;8.50;6.35;;;12.50;99.90;;;;;;5017553;28;20120;-80
2022/04/16 08:38:38;;;;;;;6.55;5.22;;;12.20;99.90;;;;;;4995045;28;20030;-81
2022/04/16 08:41:05;;;;;;;7.90;5.50;;;12.30;99.90;;;;;;5005776;28;20546;-82
2022/04/16 08:43:32;;;;;;;9.57;5.88;;;12.40;99.90;;;;;;5015065;28;20060;-80
2022/04/16 08:46:00;;;;;;;9.05;6.20;;;12.60;99.90;;;;;;4979181;28;20043;-80
2022/04/16 08:48:26;;;;;;;8.90;5.93;;;12.70;99.90;;;;;;4983685;28;20034;-83
2022/04/16 08:50:52;;;;;;;10.23;6.32;;;12.60;99.90;;;;;;5000031;28;20371;-80
2022/04/16 08:53:18;;;;;;;8.13;5.50;;;12.60;99.90;;;;;;5014559;28;20033;-83
2022/04/16 08:55:43;;;;;;;7.65;5.88;;;12.90;99.90;;;;;;4993334;28;20029;-80
2022/04/16 08:58:09;;;;;;;7.57;6.18;;;12.80;99.90;;;;;;5004268;28;20504;-81
2022/04/16 09:00:34;;;;;;;9.15;6.18;;;13.00;99.90;;;;;;4997194;28;20049;-81
2022/04/16 09:03:03;;;;;;;7.72;4.90;;;13.30;99.90;;;;;;4984275;28;20112;-79
2022/04/16 09:05:29;;;;;;;5.70;4.50;;;13.50;99.90;;;;;;4981367;28;20553;-80
2022/04/16 09:07:59;;;;;;;6.97;4.70;;;13.50;99.90;;;;;;5015236;28;20021;-82
2022/04/16 09:10:26;;;;;;;;;;;13.50;99.90;;;;;;4998792;28;20056;-81
2022/04/16 09:12:53;;;;;;;8.00;5.28;;;13.60;99.90;;;;;;4998045;28;19972;-81
2022/04/16 09:15:19;;;;;;;7.35;5.45;;;13.50;99.90;;;;;;5015265;28;20037;-81
2022/04/16 09:18:00;;;;;;;5.85;4.15;;;13.70;99.90;;;;;;4998879;28;20036;-81
2022/04/16 09:20:31;;;;;;;7.28;4.25;;;14.20;99.90;;;;;;5016228;28;20385;-80
2022/04/16 09:22:56;;;;;;;6.28;4.45;;;14.50;99.90;;;;;;5014399;28;22027;-80
2022/04/16 09:25:22;;;;;;;4.18;3.17;;;14.60;99.90;;;;;;4987490;28;20065;-81
2022/04/16 09:27:49;;;;;;;5.68;3.05;;;14.80;99.90;;;;;;4997472;28;20033;-79
2022/04/16 09:30:25;;;;;;;4.75;3.22;;;14.70;99.90;;;;;;4998745;28;20536;-80
2022/04/16 09:32:52;;;;;;;5.35;3.80;;;14.70;99.90;;;;;;5015397;28;20482;-80
2022/04/16 09:35:32;;;;;;;4.15;2.85;;;14.80;99.90;;;;;;4998170;28;21796;-81
2022/04/16 09:37:59;;;;;;;;;;;15.10;99.90;;;;;;5016283;28;20869;-81
2022/04/16 09:40:26;;;;;;;4.38;2.25;;;15.50;99.90;;;;;;5001141;28;19921;-80
2022/04/16 09:42:53;;;;;;;3.60;2.13;;;15.60;99.90;;;;;;5016506;28;20113;-81
2022/04/16 09:45:19;;;;;;;3.88;2.40;;;15.80;99.90;;;;;;5016552;28;20041;-79
2022/04/16 09:47:48;;;;;;;3.85;1.80;;;15.40;99.90;;;;;;5018085;28;20029;-81
2022/04/16 09:50:14;;;;;;;2.65;1.73;;;15.90;99.90;;;;;;5015563;28;20635;-80
2022/04/16 09:52:41;;;;;;;2.75;1.40;;;15.70;99.90;;;;;;4965241;28;20336;-82
2022/04/16 09:55:08;;;;;;;3.85;2.17;;;15.80;99.90;;;;;;4998763;28;20037;-82
2022/04/16 09:57:38;;;;;;;3.63;2.05;;;15.40;99.90;;;;;;5015575;28;20053;-81
2022/04/16 10:00:04;;;;;;;;;;;15.20;99.90;;;;;;4982028;28;20037;-81
2022/04/16 10:02:39;;;;;;;3.10;1.60;;;15.30;99.90;;;;;;5016209;28;19915;-81
2022/04/16 10:05:06;;;;;;;2.40;1.30;;;15.30;99.90;;;;;;4997689;28;21878;-81
2022/04/16 10:07:33;;;;;;;2.70;1.30;;;15.50;99.90;;;;;;5013154;28;20040;-82
2022/04/16 10:10:03;;;;;;;2.70;1.30;;;15.40;99.90;;;;;;5017049;28;20041;-81
2022/04/16 10:15:19;;;;;;;1.88;0.70;;;15.30;99.90;;;;;;5019215;28;20033;-81
2022/04/16 10:17:51;;;;;;;1.95;0.70;;;15.90;99.90;;;;;;5002684;28;20040;-80
2022/04/16 10:20:19;;;;;;;2.53;0.80;;;15.70;99.90;;;;;;5002792;28;20041;-82
2022/04/16 10:22:56;;;;;;;1.75;0.73;;;16.00;99.90;;;;;;5001281;28;20032;-81
2022/04/16 10:25:35;;;;;;;2.00;0.73;;;16.40;99.90;;;;;;5018203;28;20677;-83
2022/04/16 10:28:06;;;;;;;1.60;0.60;;;16.00;99.90;;;;;;5001252;28;20385;-82
2022/04/16 10:30:40;;;;;;;1.42;0.50;;;16.20;99.90;;;;;;5000635;28;20320;-82
2022/04/16 10:33:17;;;;;;;1.70;0.75;;;16.30;99.90;;;;;;5016427;28;20296;-81
2022/04/16 10:35:59;;;;;;;1.67;0.60;;;16.30;99.90;;;;;;5018370;28;20044;-83
2022/04/16 10:38:39;;;;;;;1.60;0.60;;;16.30;99.90;;;;;;5018582;28;20032;-80
2022/04/16 10:41:13;;;;;;;2.05;0.65;;;16.30;99.90;;;;;;4985493;28;20068;-80
2022/04/16 10:43:39;;;;;;;1.83;0.60;;;16.20;99.90;;;;;;4984310;28;20042;-80
2022/04/16 10:46:09;;;;;;;1.95;0.70;;;16.40;99.90;;;;;;5016193;28;20042;-82
2022/04/16 10:48:36;;;;;;;1.52;0.60;;;16.30;99.90;;;;;;4996120;28;20037;-80
2022/04/16 10:51:03;;;;;;;3.33;0.90;;;16.10;99.90;;;;;;5019290;28;20492;-81
2022/04/16 10:53:32;;;;;;;1.80;0.63;;;16.00;99.90;;;;;;5019909;28;20499;-80
2022/04/16 10:56:13;;;;;;;2.20;0.57;;;16.40;99.90;;;;;;5020679;28;20025;-81
2022/04/16 10:58:43;;;;;;;2.28;0.60;;;16.30;99.90;;;;;;5018774;28;20033;-77
2022/04/16 11:01:10;;;;;;;1.38;0.68;;;16.30;99.90;;;;;;5011843;28;20051;-77
2022/04/16 11:03:45;;;;;;;1.77;0.70;;;16.00;99.90;;;;;;5018202;28;20084;-79
2022/04/16 11:06:11;;;;;;;2.00;0.60;;;16.00;99.90;;;;;;5001173;28;20059;-78
2022/04/16 11:08:38;;;;;;;2.85;0.50;;;16.50;99.90;;;;;;5019352;28;20437;-78
2022/04/16 11:11:04;;;;;;;1.95;0.60;;;16.40;99.90;;;;;;5018472;28;20567;-78
2022/04/16 11:13:40;;;;;;;1.60;0.60;;;16.50;99.90;;;;;;4984447;28;20033;-80
2022/04/16 11:16:06;;;;;;;1.10;0.50;;;16.20;99.90;;;;;;5016943;28;20482;-78
2022/04/16 11:18:43;;;;;;;1.95;0.75;;;16.40;99.90;;;;;;4981095;28;20048;-77
2022/04/16 11:21:13;;;;;;;;;;;16.70;99.90;;;;;;5000028;28;20064;-79
2022/04/16 11:23:40;;;;;;;2.88;0.60;;;16.80;99.90;;;;;;5017910;28;19967;-77
2022/04/16 11:34:26;;;;;;;1.30;0.40;;;17.00;99.90;;;;;;5018124;28;20120;-79
2022/04/16 11:36:53;;;;;;;1.45;0.47;;;16.90;99.90;;;;;;4998600;28;20029;-78
2022/04/16 11:39:20;;;;;;;0.95;0.40;;;17.00;99.90;;;;;;5016458;28;20033;-79
2022/04/16 11:41:55;;;;;;;1.05;0.50;;;17.00;99.90;;;;;;5014294;28;20386;-77
2022/04/16 11:44:41;;;;;;;1.10;0.40;;;16.90;99.90;;;;;;4994120;28;20044;-77
2022/04/16 11:47:14;;;;;;;2.20;0.50;;;16.60;99.90;;;;;;5017823;28;20038;-81
2022/04/16 11:49:53;;;;;;;1.02;0.30;;;16.80;99.90;;;;;;4998188;28;20185;-79
2022/04/16 11:52:30;;;;;;;1.15;0.40;;;17.20;99.90;;;;;;5017793;28;20026;-79
2022/04/16 11:55:22;;;;;;;1.67;0.40;;;17.00;99.90;;;;;;5018395;28;20041;-77
2022/04/16 11:57:53;;;;;;;1.45;0.40;;;17.00;99.90;;;;;;4989992;28;20041;-78
2022/04/16 12:00:21;;;;;;;0.98;0.40;;;16.70;99.90;;;;;;5018082;28;20049;-77
2022/04/16 12:02:49;;;;;;;2.03;0.40;;;17.00;99.90;;;;;;5017074;28;20092;-76
2022/04/16 12:05:26;;;;;;;1.17;0.32;;;17.00;99.90;;;;;;5006968;28;20128;-77
2022/04/16 12:07:52;;;;;;;0.68;0.28;;;16.80;99.90;;;;;;5017208;28;20029;-79
2022/04/16 12:10:18;;;;;;;0.98;0.30;;;17.20;99.90;;;;;;5018249;28;20025;-78
2022/04/16 12:12:50;;;;;;;0.68;0.20;;;17.30;99.90;;;;;;5018935;28;20048;-77
2022/04/16 12:15:22;;;;;;;1.05;0.28;;;17.40;99.90;;;;;;4994931;28;20026;-78
2022/04/16 12:17:49;;;;;;;1.80;0.40;;;17.30;99.90;;;;;;4981742;28;20041;-77
2022/04/16 12:20:15;;;;;;;0.90;0.32;;;16.90;99.90;;;;;;5017794;28;20041;-78
2022/04/16 12:22:47;;;;;;;1.00;0.40;;;16.70;99.90;;;;;;5017124;28;20033;-78
2022/04/16 12:25:20;;;;;;;1.10;0.40;;;16.90;99.90;;;;;;4993696;28;20132;-77
2022/04/16 12:27:54;;;;;;;1.25;0.40;;;16.50;99.90;;;;;;5016138;28;20033;-78
2022/04/16 12:30:25;;;;;;;1.52;0.43;;;16.80;99.90;;;;;;5015970;28;20037;-78
2022/04/16 12:33:04;;;;;;;2.72;0.32;;;16.80;99.90;;;;;;4982808;28;20049;-78
2022/04/16 12:35:32;;;;;;;0.75;0.20;;;16.80;99.90;;;;;;5017707;28;20444;-76
2022/04/16 12:37:58;;;;;;;1.05;0.30;;;17.40;99.80;;;;;;5016190;28;20169;-79
2022/04/16 12:40:25;;;;;;;1.00;0.40;;;17.10;99.60;;;;;;5015156;28;20053;-78
2022/04/16 12:42:53;;;;;;;3.50;0.40;;;16.80;99.40;;;;;;5015654;28;20087;-77
2022/04/16 12:45:20;;;;;;;1.10;0.30;;;17.00;99.20;;;;;;5016164;28;20030;-77
2022/04/16 12:47:45;;;;;;;1.05;0.30;;;17.00;99.90;;;;;;4984738;28;20486;-77
2022/04/16 12:50:13;;;;;;;0.85;0.28;;;17.50;99.90;;;;;;4995490;28;20057;-77
2022/04/16 12:52:39;;;;;;;0.60;0.20;;;17.30;99.90;;;;;;5014215;28;20039;-78
2022/04/16 12:55:06;;;;;;;1.00;0.30;;;17.40;99.30;;;;;;4997967;28;20037;-78
2022/04/16 12:57:31;;;;;;;1.17;0.30;;;17.10;99.20;;;;;;5015911;28;20445;-77
2022/04/16 12:59:57;;;;;;;1.05;0.30;;;16.90;99.30;;;;;;4996466;28;20137;-77
2022/04/16 13:02:23;;;;;;;1.02;0.40;;;16.80;99.60;;;;;;5015198;28;20041;-78
2022/04/16 13:04:50;;;;;;;1.40;0.40;;;17.00;98.90;;;;;;5015594;28;20417;-78
2022/04/16 13:07:16;;;;;;;1.83;0.40;;;16.90;99.90;;;;;;5015786;28;20048;-78
2022/04/16 13:09:42;;;;;;;1.45;0.40;;;16.90;99.70;;;;;;4998560;28;20042;-77
2022/04/16 13:12:07;;;;;;;0.90;0.30;;;17.00;99.10;;;;;;5015792;28;20025;-77
2022/04/16 13:14:34;;;;;;;0.60;0.20;;;17.10;99.40;;;;;;5016728;28;20049;-81
2022/04/16 13:17:02;;;;;;;0.98;0.22;;;16.90;98.60;;;;;;5017237;28;20148;-77